Aérodrome :
LOGIN :

S'inscrire | Disclaimer

   EN    FR    IT 

 










Légende :    VFR   VFR Marginal   IFR   IFR Intensif   IFR Très Intensif
Visi : 
Plafond : 
>= 8 km
>= 3000ft
5 à 8 km
1000 à 3000 ft
1500m à 5 km
500 à 1000 ft
800 à 1500m
200 à 500 ft
< 800m
< 200 ft
Symboles :   Orages  Brouillard  Fortes neiges  Fortes précipitations  Vent > 20 kt
SIGMETs :   Divers  Orages  Givrage  Turbulence  Onde Orograph.  Cendres Volcan.







- Altitude de l'aérodrome : 16 ft
- Code IATA : SDR


LEXJ - Santander Cantabria

DERNIER METAR :
  • 231800Z 03005KT 350V070 CAVOK 14/11 Q1025

METARs EXPIRÉS :
  • 231730Z 03008KT 350V070 CAVOK 15/11 Q1024
  • 231700Z 03007KT 350V050 CAVOK 15/11 Q1024
  • 231630Z 03009KT 350V060 CAVOK 15/12 Q1024
  • 231600Z 04008KT 360V070 CAVOK 15/11 Q1024
  • 231530Z 04008KT 340V080 CAVOK 16/11 Q1024

TAF TAF LEXJ
Valide du 23 à 15h jusqu'au 24 à 15h UTC


231400Z 2315/2415 18005KT CAVOK TX19/2413Z TN07/2406Z
PROB40
TEMPO 2315/2317 04010KT
PROB30
TEMPO 2400/2407 3000 BR
PROB40
TEMPO 2411/2415 05010KT
Pas de NOTAMs connus pour ce terrain.
2 SIGMETs publiés pour la FIR Madrid (LECM) :
 
Orages noyés dans la masse
LECM SIGMET 4 VALID 231624/231900 LEVA
LECM MADRID FIR/UIR EMBD TS FCST WI N3845 W00452 - N3639 W00515 - N3655 W00236 - N3843 W00222 - N3845 W00452 TOP FL300 STNR NC=
Onde orographique forte
LECM SIGMET 3 VALID 231600/232000 LEVA
LECM MADRID FIR/UIR SEV MTW FCST WI N3849 W00213 - N3709 W00444 - N3657 W00425 - N3808 W00149 - N3849 W00213 SFC/FL300 STNR NC=



MET'MAP, la Météo Aéronautique d'un coup d'oeil ! - Copyright ORBIFLY Décembre 2007 - Disclaimer

ORBIFLY MET'MAP TEAM :

Programmation & Développement : Alexandra Zaïnal
Conception & Développement : Baudouin d'Aumeries
Co-Programmation & Développement : Marc-Olivier Méhu
Soutien technique & logistique : Manuel Goepfert

Contact : metmap@orbifly.com




SOURCES & CREDITS :

   NOAA